7B1 weather

Rainbow Heliport
Peoria, Illinois, United States

Public forecast

Using degrees Fahrenheit for public forecast. Weather courtesy of forecast.io.

Closest aviation weather report (METAR) to Rainbow Heliport

Closest report is General Wayne A. Downing Peoria International Airport, 6.7 nm (12.4 km) S. Retrieved 2020/07/09 10:54 UTC (20 minutes ago):

KPIA 091054Z 00000KT 10SM CLR 23/21 A2990 RMK AO2 SLP120 T02330206

Closest aviation forecast (TAF) to Rainbow Heliport

Closest forecast is General Wayne A. Downing Peoria International Airport, 6.7 nm (12.4 km) S. Retrieved 2020/07/09 06:22 UTC (5 hours ago):

TAF KPIA 090520Z 0906/1006 VRB05KT P6SM SCT250 FM091500 19006KT P6SM SCT050 FM100000 15004KT P6SM VCTS BKN050CB FM100300 14005KT P6SM SCT050 BKN250